createdAt,value
2023-04-03T00:03:03.791Z,98189.78
2023-04-03T00:08:09.062Z,98195.00
2023-04-03T00:13:14.539Z,98197.56
2023-04-03T00:18:18.073Z,98186.34
2023-04-03T00:23:21.544Z,98199.44
2023-04-03T00:28:26.473Z,98202.88
2023-04-03T00:33:29.862Z,98198.53
2023-04-03T00:38:33.825Z,98208.88
2023-04-03T00:43:38.914Z,98202.00
2023-04-03T00:48:45.003Z,98203.75
2023-04-03T00:53:51.802Z,98203.72
2023-04-03T00:59:01.449Z,98201.16
2023-04-03T01:04:07.039Z,98202.88
2023-04-03T01:09:10.845Z,98208.91
2023-04-03T01:14:15.742Z,98199.34
2023-04-03T01:19:21.759Z,98199.28
2023-04-03T01:24:35.162Z,98187.75
2023-04-03T01:29:44.568Z,98195.56
2023-04-03T01:34:49.582Z,98204.22
2023-04-03T01:39:53.184Z,98205.00
2023-04-03T01:44:56.759Z,98200.59
2023-04-03T01:50:01.643Z,98202.25
2023-04-03T01:55:09.209Z,98201.47
2023-04-03T02:00:13.706Z,98210.31
2023-04-03T02:05:20.149Z,98209.63
2023-04-03T02:10:23.567Z,98219.28
2023-04-03T02:15:27.289Z,98221.84
2023-04-03T02:20:32.350Z,98239.19
2023-04-03T02:25:38.471Z,98237.47
2023-04-03T02:30:42.229Z,98236.56
2023-04-03T02:35:54.191Z,98236.50
2023-04-03T02:41:03.414Z,98245.09
2023-04-03T02:46:09.615Z,98249.38
2023-04-03T02:51:15.031Z,98245.94
2023-04-03T02:56:19.205Z,98245.03
2023-04-03T03:01:23.366Z,98249.38
2023-04-03T03:06:28.708Z,98243.31
2023-04-03T03:11:32.365Z,98251.13
2023-04-03T03:16:36.176Z,98260.69
2023-04-03T03:21:41.012Z,98258.97
2023-04-03T03:26:44.545Z,98265.09
2023-04-03T03:31:49.488Z,98276.34
2023-04-03T03:36:54.662Z,98281.56
2023-04-03T03:41:58.318Z,98283.31
2023-04-03T03:47:02.159Z,98290.19
2023-04-03T03:52:08.020Z,98289.34
2023-04-03T03:57:11.893Z,98284.19
2023-04-03T04:02:16.020Z,98296.25
2023-04-03T04:07:20.945Z,98306.66
2023-04-03T04:12:24.558Z,98310.94
2023-04-03T04:17:28.104Z,98307.50
2023-04-03T04:22:33.711Z,98314.38
2023-04-03T04:27:38.142Z,98320.41
2023-04-03T04:32:42.905Z,98324.72
2023-04-03T04:37:48.145Z,98322.09
2023-04-03T04:42:52.090Z,98321.25
2023-04-03T04:47:57.625Z,98334.19
2023-04-03T04:53:03.809Z,98345.38
2023-04-03T04:58:07.425Z,98354.00
2023-04-03T05:03:12.904Z,98341.81
2023-04-03T05:08:18.477Z,98345.22
2023-04-03T05:13:22.446Z,98350.34
2023-04-03T05:18:26.344Z,98351.16
2023-04-03T05:23:34.507Z,98349.41
2023-04-03T05:28:39.502Z,98355.34
2023-04-03T05:33:44.578Z,98352.56
2023-04-03T05:38:54.726Z,98352.47
2023-04-03T05:43:58.461Z,98346.28
2023-04-03T05:49:02.957Z,98362.66
2023-04-03T05:54:15.882Z,98364.25
2023-04-03T05:59:21.244Z,98375.38
2023-04-03T06:04:27.834Z,98380.34
2023-04-03T06:09:33.433Z,98377.72
2023-04-03T06:14:37.167Z,98381.88
2023-04-03T06:19:40.615Z,98400.78
2023-04-03T06:24:45.940Z,98396.13
2023-04-03T06:29:49.894Z,98409.56
2023-04-03T06:34:54.425Z,98414.06
2023-04-03T06:39:59.309Z,98413.66
2023-04-03T06:45:02.886Z,98415.56
2023-04-03T06:50:10.024Z,98421.78
2023-04-03T06:55:14.868Z,98413.19
2023-04-03T07:00:19.307Z,98421.97
2023-04-03T07:05:23.083Z,98425.91
2023-04-03T07:10:28.194Z,98422.38
2023-04-03T07:15:32.292Z,98428.72
2023-04-03T07:20:37.394Z,98440.38
2023-04-03T07:25:46.760Z,98443.69
2023-04-03T07:30:52.471Z,98440.97
2023-04-03T07:35:56.758Z,98431.28
2023-04-03T07:41:02.052Z,98431.88
2023-04-03T07:46:07.795Z,98434.56
2023-04-03T07:51:12.434Z,98454.06
2023-04-03T07:56:17.406Z,98459.97
2023-04-03T08:01:21.141Z,98467.81
2023-04-03T08:06:37.407Z,98463.59
2023-04-03T08:11:47.518Z,98461.63
2023-04-03T08:16:51.128Z,98468.28
2023-04-03T08:21:54.768Z,98464.34
2023-04-03T08:26:59.919Z,98464.38
2023-04-03T08:32:04.939Z,98466.44
2023-04-03T08:37:08.334Z,98462.91
2023-04-03T08:42:21.946Z,98456.91
2023-04-03T08:47:32.465Z,98462.69
2023-04-03T08:52:40.587Z,98478.09
2023-04-03T08:57:48.313Z,98481.59
2023-04-03T09:02:54.171Z,98463.75
2023-04-03T09:08:06.606Z,98459.63
2023-04-03T09:13:19.078Z,98472.50
2023-04-03T09:18:26.299Z,98476.78
2023-04-03T09:23:36.212Z,98478.22
2023-04-03T09:28:50.471Z,98477.59
2023-04-03T09:33:59.006Z,98465.28
2023-04-03T09:39:07.032Z,98456.00
2023-04-03T09:44:25.950Z,98454.28
2023-04-03T09:49:29.525Z,98447.09
2023-04-03T09:54:37.174Z,98449.31
2023-04-03T09:59:48.342Z,98441.09
2023-04-03T10:05:02.546Z,98434.13
2023-04-03T10:10:21.386Z,98435.53
2023-04-03T10:15:32.232Z,98433.28
2023-04-03T10:20:40.060Z,98440.66
2023-04-03T10:25:51.312Z,98436.94
2023-04-03T10:31:08.029Z,98449.50
2023-04-03T10:36:20.752Z,98443.13
2023-04-03T10:41:34.489Z,98436.06
2023-04-03T10:46:43.912Z,98424.94
2023-04-03T10:51:50.718Z,98422.22
2023-04-03T10:57:10.849Z,98421.97
2023-04-03T11:02:25.199Z,98427.88
2023-04-03T11:07:32.930Z,98430.66
2023-04-03T11:12:44.242Z,98421.31
2023-04-03T11:17:56.933Z,98416.78
2023-04-03T11:23:05.382Z,98409.50
2023-04-03T11:28:15.102Z,98402.84
2023-04-03T11:33:30.891Z,98401.50
2023-04-03T11:38:40.562Z,98402.53
2023-04-03T11:43:57.592Z,98399.22
2023-04-03T11:49:02.701Z,98407.13
2023-04-03T11:54:44.739Z,98407.72
2023-04-03T11:59:48.588Z,98406.50
2023-04-03T12:05:21.579Z,98404.69
2023-04-03T12:10:32.122Z,98407.53
2023-04-03T12:15:55.619Z,98409.13
2023-04-03T12:21:00.437Z,98401.25
2023-04-03T12:26:22.798Z,98406.72
2023-04-03T12:31:35.602Z,98405.09
2023-04-03T12:36:50.456Z,98401.88
2023-04-03T12:42:03.487Z,98399.00
2023-04-03T12:47:24.489Z,98400.00
2023-04-03T12:52:39.689Z,98388.03
2023-04-03T12:57:44.505Z,98385.13
2023-04-03T13:02:48.735Z,98388.84
2023-04-03T13:07:57.488Z,98373.47
2023-04-03T13:13:10.744Z,98370.09
2023-04-03T13:18:30.128Z,98379.47
2023-04-03T13:23:36.849Z,98398.63
2023-04-03T13:28:42.864Z,98408.66
2023-04-03T13:33:57.975Z,98402.78
2023-04-03T13:39:05.041Z,98402.66
2023-04-03T13:44:27.967Z,98405.19
2023-04-03T13:49:35.224Z,98394.31
2023-04-03T13:54:41.038Z,98398.22
2023-04-03T13:59:46.785Z,98407.13
2023-04-03T14:04:57.477Z,98417.25
2023-04-03T14:10:01.523Z,98418.09
2023-04-03T14:15:14.688Z,98411.53
2023-04-03T14:20:19.167Z,98422.38
2023-04-03T14:25:24.611Z,98427.81
2023-04-03T14:30:33.078Z,98433.78
2023-04-03T14:35:36.574Z,98432.63
2023-04-03T14:40:40.649Z,98444.59
2023-04-03T14:45:45.977Z,98442.25
2023-04-03T14:51:04.673Z,98446.72
2023-04-03T14:56:14.465Z,98447.09
2023-04-03T15:01:19.778Z,98456.19
2023-04-03T15:06:23.398Z,98445.88
2023-04-03T15:11:27.799Z,98445.97
2023-04-03T15:16:32.747Z,98459.50
2023-04-03T15:21:36.413Z,98457.91
2023-04-03T15:26:40.207Z,98458.34
2023-04-03T15:31:45.464Z,98466.16
2023-04-03T15:36:49.151Z,98464.72
2023-04-03T15:41:53.456Z,98477.09
2023-04-03T15:46:58.346Z,98480.69
2023-04-03T15:52:02.149Z,98479.84
2023-04-03T15:57:05.635Z,98485.28
2023-04-03T16:02:15.358Z,98494.84
2023-04-03T16:07:18.944Z,98483.88
2023-04-03T16:12:22.405Z,98479.41
2023-04-03T16:17:29.377Z,98483.03
2023-04-03T16:22:33.232Z,98490.03
2023-04-03T16:27:36.675Z,98493.44
2023-04-03T16:32:43.165Z,98497.84
2023-04-03T16:37:47.980Z,98492.63
2023-04-03T16:42:51.679Z,98493.81
2023-04-03T16:47:56.691Z,98491.34
2023-04-03T16:53:00.173Z,98491.28
2023-04-03T16:58:03.729Z,98495.91
2023-04-03T17:03:08.640Z,98495.16
2023-04-03T17:08:12.112Z,98496.06
2023-04-03T17:13:16.072Z,98493.41
2023-04-03T17:18:21.033Z,98491.84
2023-04-03T17:23:25.952Z,98487.56
2023-04-03T17:28:29.788Z,98494.56
2023-04-03T17:33:37.582Z,98498.94
2023-04-03T17:38:41.381Z,98505.06
2023-04-03T17:43:46.220Z,98508.47
2023-04-03T17:48:51.225Z,98507.75
2023-04-03T17:53:54.711Z,98505.19
2023-04-03T17:58:58.888Z,98497.47
2023-04-03T18:04:05.901Z,98489.75
2023-04-03T18:09:12.967Z,98469.03
2023-04-03T18:14:19.389Z,98469.06
2023-04-03T18:19:24.395Z,98458.66
2023-04-03T18:24:28.787Z,98452.63
2023-04-03T18:29:35.145Z,98449.19
2023-04-03T18:34:40.651Z,98461.34
2023-04-03T18:39:44.871Z,98450.94
2023-04-03T18:44:52.513Z,98453.44
2023-04-03T18:49:57.885Z,98459.56
2023-04-03T18:55:01.624Z,98449.97
2023-04-03T19:00:07.372Z,98454.28
2023-04-03T19:05:15.203Z,98446.47
2023-04-03T19:10:20.124Z,98450.81
2023-04-03T19:15:25.653Z,98436.94
2023-04-03T19:20:32.568Z,98434.34
2023-04-03T19:25:36.254Z,98420.53
2023-04-03T19:30:40.085Z,98437.03
2023-04-03T19:35:45.402Z,98410.16
2023-04-03T19:40:49.295Z,98406.69
2023-04-03T19:45:53.629Z,98387.63
2023-04-03T19:50:58.880Z,98385.13
2023-04-03T19:56:02.477Z,98402.47
2023-04-03T20:01:07.421Z,98413.75
2023-04-03T20:06:12.421Z,98444.88
2023-04-03T20:11:16.227Z,98449.22
2023-04-03T20:16:22.541Z,98430.13
2023-04-03T20:21:33.162Z,98417.25
2023-04-03T20:26:42.144Z,98385.19
2023-04-03T20:31:46.924Z,98374.78
2023-04-03T20:36:53.159Z,98355.81
2023-04-03T20:41:56.715Z,98341.06
2023-04-03T20:47:00.454Z,98334.19
2023-04-03T20:52:05.677Z,98336.81
2023-04-03T20:57:09.188Z,98335.97
2023-04-03T21:02:13.203Z,98331.63
2023-04-03T21:07:54.557Z,98321.28
2023-04-03T21:13:35.063Z,98303.16
2023-04-03T21:18:59.464Z,98336.06
2023-04-03T21:24:06.488Z,98330.06
2023-04-03T21:29:10.628Z,98334.38
2023-04-03T21:34:15.578Z,98343.00
2023-04-03T21:39:19.156Z,98344.78
2023-04-03T21:44:22.854Z,98348.25
2023-04-03T21:49:28.271Z,98333.50
2023-04-03T21:54:31.718Z,98305.91
2023-04-03T21:59:35.979Z,98303.34
2023-04-03T22:04:41.056Z,98312.84
2023-04-03T22:09:44.530Z,98300.72
2023-04-03T22:14:48.098Z,98282.59
2023-04-03T22:19:52.807Z,98285.22
2023-04-03T22:24:57.014Z,98296.44
2023-04-03T22:30:00.518Z,98306.84
2023-04-03T22:35:06.146Z,98319.88
2023-04-03T22:40:11.008Z,98320.72
2023-04-03T22:45:15.239Z,98325.94
2023-04-03T22:50:20.097Z,98317.25
2023-04-03T22:55:24.542Z,98307.72
2023-04-03T23:00:28.248Z,98299.09
2023-04-03T23:05:33.089Z,98285.25
2023-04-03T23:10:36.483Z,98267.03
2023-04-03T23:15:39.880Z,98265.31
2023-04-03T23:20:44.670Z,98275.78
2023-04-03T23:25:53.230Z,98246.34
2023-04-03T23:30:59.591Z,98259.28
2023-04-03T23:36:09.048Z,98272.28
2023-04-03T23:41:12.997Z,98256.66
2023-04-03T23:46:16.382Z,98248.03
2023-04-03T23:51:21.657Z,98261.84
2023-04-03T23:56:25.100Z,98260.97
